Data for 04/24/2007

Time Sea-Level Adjusted Pressure Absolute Pressure Temperature Relative Humidity Dew Point   
(mb) (inHg) (mb) (inHg) (C) (F) (%) (C) (F)
00:05 1021 30.15 850 25.1 5 41 85 2.7 36.8
00:10 1021 30.15 850 25.1 4.9 40.8 86 2.7 36.9
00:15 1021 30.15 850 25.1 4.7 40.5 86 2.6 36.6
00:20 1021 30.15 850 25.1 4.7 40.4 86 2.6 36.6
00:25 1021 30.15 850 25.1 4.6 40.3 86 2.5 36.5
00:30 1021 30.15 850 25.1 4.6 40.2 87 2.5 36.6
00:35 1021 30.15 850 25.1 4.5 40 87 2.5 36.4
00:40 1021 30.15 850 25.1 4.3 39.8 87 2.4 36.3
00:45 1021 30.15 850 25.1 4.1 39.4 88 2.2 36
00:50 1021 30.15 850 25.1 4.1 39.3 88 2.3 36.1
00:55 1021 30.15 850 25.1 3.9 39.1 89 2.3 36.1
01:00 1021 30.15 850 25.1 3.9 39 89 2.2 36
01:05 1021 30.15 850 25.1 3.6 38.4 89 1.9 35.5
01:10 1021 30.15 850 25.1 3.2 37.8 89 1.5 34.8
01:15 1021 30.15 850 25.1 3.1 37.5 88 1.3 34.4
01:20 1021 30.15 850 25.1 3.1 37.6 89 1.4 34.5
01:25 1021 30.15 850 25.1 3.3 37.9 88 1.6 34.8
01:30 1021 30.15 850 25.1 3.3 38 89 1.7 35
01:35 1021 30.15 850 25.1 3.4 38.1 89 1.8 35.2
01:40 1021 30.15 850 25.1 3.5 38.3 89 1.9 35.4
01:45 1021 30.15 850 25.1 3.4 38.2 89 1.8 35.2
01:50 1021 30.15 850 25.1 3.3 37.9 90 1.8 35.2
01:55 1021 30.15 850 25.1 3.3 38 90 1.8 35.3
02:00 1021 30.15 850 25.1 3.3 37.9 90 1.8 35.3
02:05 1021 30.15 850 25.1 3.3 37.9 90 1.7 35.1
02:10 1021 30.15 850 25.1 3.2 37.8 90 1.7 35.1
02:15 1021 30.15 850 25.1 3.3 37.9 90 1.7 35.1
02:20 1021 30.15 850 25.1 3.2 37.8 90 1.7 35.1
02:25 1021 30.15 850 25.1 3.2 37.7 90 1.7 35.1
02:30 1021 30.15 850 25.1 3.1 37.5 90 1.5 34.8
02:35 1021 30.15 850 25.1 3 37.3 90 1.4 34.6
02:40 1021 30.15 850 25.1 3 37.4 90 1.5 34.8
02:45 1021 30.15 850 25.1 3 37.4 90 1.5 34.8
02:50 1021 30.15 850 25.1 2.8 37 90 1.3 34.3
02:55 1021 30.15 850 25.1 2.6 36.7 90 1.1 34
03:00 1021 30.15 850 25.1 2.6 36.7 90 1 33.9
03:05 1021 30.15 850 25.1 2.7 36.9 89 1.1 33.9
03:10 1021 30.15 850 25.1 2.8 37.1 89 1.1 34
03:15 1021 30.15 850 25.1 2.8 37 89 1.2 34.1
03:20 1021 30.15 850 25.1 2.7 36.9 90 1.2 34.2
03:25 1021 30.15 850 25.1 2.6 36.7 91 1.2 34.2
03:30 1021 30.15 850 25.1 2.7 36.8 91 1.4 34.4
03:35 1021 30.15 850 25.1 2.8 37.1 91 1.5 34.6
03:40 1021 30.15 850 25.1 2.8 37 91 1.4 34.5
03:45 1021 30.15 850 25.1 2.8 37.1 90 1.4 34.4
03:50 1021 30.15 850 25.1 2.6 36.8 90 1.2 34.2
03:55 1021 30.15 850 25.1 2.4 36.2 91 1.1 33.9
04:00 1021 30.15 850 25.1 2.5 36.4 91 1.2 34.1
04:05 1021 30.15 850 25.1 2.5 36.5 91 1.2 34.1
04:10 1021 30.15 850 25.1 2.5 36.4 91 1.1 33.9
04:15 1021 30.15 850 25.1 2.4 36.3 91 1.1 34
04:20 1021 30.15 850 25.1 2.5 36.4 92 1.2 34.2
04:25 1021 30.15 850 25.1 2.4 36.3 92 1.2 34.1
04:30 1021 30.15 850 25.1 2.4 36.2 91 1.1 34
04:35 1021 30.15 850 25.1 2.4 36.3 91 1 33.8
04:40 1021 30.15 850 25.1 2.4 36.3 91 1.1 33.9
04:45 1021 30.15 850 25.1 2.3 36.1 91 1 33.7
04:50 1021 30.15 850 25.1 2.1 35.8 92 0.9 33.6
04:55 1021 30.15 850 25.1 2.1 35.8 92 0.9 33.7
05:00 1021 30.15 850 25.1 2 35.6 92 0.9 33.5
05:05 1021 30.15 850 25.1 2 35.6 92 0.9 33.6
05:10 1021 30.15 850 25.1 2 35.6 92 0.8 33.4
05:15 1021 30.15 850 25.1 2 35.6 91 0.7 33.3
05:20 1021 30.15 850 25.1 2 35.7 91 0.8 33.4
05:25 1021 30.15 850 25.1 2.1 35.7 91 0.7 33.3
05:30 1021 30.15 850 25.1 2.1 35.7 91 0.7 33.3
05:35 1021 30.15 850 25.1 2 35.7 91 0.8 33.4
05:40 1021 30.15 850 25.1 2.1 35.7 90 0.7 33.2
05:45 1021 30.15 850 25.1 2.1 35.7 91 0.7 33.2
05:50 1021 30.15 850 25.1 2.1 35.8 91 0.7 33.3
05:55 1021 30.15 850 25.1 2.1 35.8 91 0.7 33.3
06:00 1021 30.15 850 25.1 2.2 36 90 0.7 33.3
06:05 1021 30.15 850 25.1 2.2 35.9 90 0.7 33.2
06:10 1021 30.15 850 25.1 2.2 36 89 0.7 33.2
06:15 1021 30.15 850 25.1 2.1 35.8 90 0.6 33.1
06:20 1021 30.15 850 25.1 1.9 35.5 91 0.6 33
06:25 1021 30.15 850 25.1 1.9 35.4 91 0.5 33
06:30 1021 30.15 851 25.13 1.9 35.4 90 0.5 32.9
06:35 1021 30.15 851 25.13 2 35.6 90 0.5 33
06:40 1022 30.18 851 25.13 2.1 35.9 90 0.7 33.2
06:45 1022 30.18 851 25.13 2.4 36.3 89 0.7 33.3
06:50 1022 30.18 851 25.13 2.5 36.5 88 0.7 33.3
06:55 1022 30.18 851 25.13 2.7 36.8 87 0.8 33.4
07:00 1022 30.18 851 25.13 2.7 36.9 86 0.7 33.2
07:05 1022 30.18 851 25.13 2.8 37 87 0.7 33.3
07:10 1022 30.18 851 25.13 3 37.3 85 0.7 33.3
07:15 1022 30.18 851 25.13 3 37.4 85 0.7 33.3
07:20 1022 30.18 851 25.13 2.9 37.3 85 0.7 33.3
07:25 1022 30.18 851 25.13 2.9 37.3 86 0.8 33.4
07:30 1022 30.18 851 25.13 3.2 37.7 84 0.7 33.3
07:35 1022 30.18 851 25.13 3.3 38 84 0.9 33.5
07:40 1022 30.18 851 25.13 3.7 38.7 82 0.9 33.7
07:45 1022 30.18 851 25.13 4.2 39.5 81 1.1 34
07:50 1022 30.18 851 25.13 4.5 40.2 79 1.2 34.2
07:55 1022 30.18 851 25.13 4.9 40.8 79 1.5 34.7
08:00 1022 30.18 851 25.13 5 41 78 1.6 34.8
08:05 1022 30.18 851 25.13 5 41.1 78 1.5 34.7
08:10 1022 30.18 851 25.13 5.3 41.5 78 1.8 35.2
08:15 1022 30.18 851 25.13 5.7 42.3 76 1.8 35.3
08:20 1022 30.18 851 25.13 6.3 43.3 74 2 35.6
08:25 1022 30.18 851 25.13 6.6 43.8 73 2 35.6
08:30 1022 30.18 851 25.13 6.9 44.4 73 2.4 36.3
08:35 1022 30.18 851 25.13 7.3 45.1 71 2.3 36.2
08:40 1022 30.18 851 25.13 7.4 45.3 72 2.7 36.8
08:45 1022 30.18 851 25.13 7.4 45.3 72 2.7 36.8
08:50 1022 30.18 851 25.13 7.8 46 71 2.9 37.3
08:55 1022 30.18 851 25.13 7.8 46 69 2.5 36.5
09:00 1022 30.18 851 25.13 7.5 45.5 71 2.5 36.5
09:05 1022 30.18 852 25.16 7.8 46 70 2.7 36.9
09:10 1022 30.18 852 25.16 8.3 46.9 66 2.4 36.3
09:15 1022 30.18 852 25.16 8.5 47.4 66 2.6 36.7
09:20 1022 30.18 852 25.16 8.9 48 65 2.7 36.9
09:25 1022 30.18 852 25.16 8.2 46.8 68 2.7 36.8
09:30 1022 30.18 852 25.16 8.6 47.4 66 2.6 36.7
09:35 1022 30.18 852 25.16 9.6 49.3 62 2.7 36.9
09:40 1022 30.18 852 25.16 10 49.9 61 2.9 37.3
09:45 1022 30.18 852 25.16 10 49.9 60 2.7 36.9
09:50 1022 30.18 852 25.16 10.8 51.5 56 2.4 36.4
09:55 1022 30.18 852 25.16 11.5 52.6 55 2.7 36.9
10:00 1022 30.18 852 25.16 11.7 53.1 54 2.8 37
10:05 1022 30.18 852 25.16 12 53.6 53 2.8 37
10:10 1022 30.18 852 25.16 12.2 54 52 2.6 36.7
10:15 1022 30.18 852 25.16 12 53.5 52 2.5 36.4
10:20 1022 30.18 852 25.16 11.9 53.3 54 3 37.4
10:25 1022 30.18 852 25.16 11.9 53.4 52 2.5 36.5
10:30 1022 30.18 852 25.16 12.5 54.5 50 2.4 36.3
10:35 1022 30.18 852 25.16 12.7 54.8 51 2.9 37.2
10:40 1022 30.18 852 25.16 13.2 55.7 50 3.1 37.5
10:45 1022 30.18 852 25.16 13.2 55.7 50 3 37.5
10:50 1022 30.18 851 25.13 12.9 55.3 51 3 37.4
10:55 1022 30.18 851 25.13 13 55.4 52 3.5 38.4
11:00 1022 30.18 851 25.13 13.3 55.9 49 3 37.4
11:05 1022 30.18 851 25.13 13.6 56.4 50 3.3 38
11:10 1022 30.18 851 25.13 13.8 56.8 49 3.3 37.9
11:15 1022 30.18 851 25.13 12.9 55.2 53 3.7 38.7
11:20 1022 30.18 851 25.13 12 53.6 51 2.4 36.2
11:25 1022 30.18 851 25.13 13.1 55.6 47 2.1 35.8
11:30 1022 30.18 851 25.13 13.7 56.7 48 2.8 37.1
11:35 1022 30.18 851 25.13 13.5 56.4 49 3.2 37.7
11:40 1022 30.18 851 25.13 13 55.4 48 2.4 36.4
11:45 1022 30.18 851 25.13 14.2 57.6 44 2.1 35.7
11:50 1022 30.18 851 25.13 14.1 57.4 44 2.2 36
11:55 1022 30.18 851 25.13 14.6 58.2 45 2.8 37
12:00 1022 30.18 851 25.13 15.1 59.2 42 2.4 36.2
12:05 1022 30.18 851 25.13 15.4 59.7 41 2.4 36.2
12:10 1022 30.18 851 25.13 15.6 60.1 41 2.5 36.5
12:15 1022 30.18 851 25.13 15 59 42 2.4 36.3
12:20 1022 30.18 851 25.13 15.4 59.6 39 1.7 35.1
12:25 1022 30.18 851 25.13 15.6 60.1 39 1.9 35.4
12:30 1022 30.18 851 25.13 15.6 60 38 1.3 34.3
12:35 1022 30.18 851 25.13 15.2 59.3 39 1.5 34.7
12:40 1021 30.15 851 25.13 14.6 58.2 42 1.8 35.2
12:45 1021 30.15 851 25.13 15.5 59.9 36 0.7 33.3
12:50 1021 30.15 851 25.13 15.1 59.3 40 1.9 35.3
12:55 1021 30.15 851 25.13 15.3 59.5 38 1.3 34.3
13:00 1021 30.15 850 25.1 14.8 58.7 37 0.5 32.9
13:05 1021 30.15 850 25.1 16.2 61.2 34 0.6 33.1
13:10 1021 30.15 850 25.1 16.6 61.8 34 0.8 33.5
13:15 1021 30.15 850 25.1 16.3 61.3 35 0.8 33.5
13:20 1021 30.15 850 25.1 16.5 61.6 32 -0.2 31.6
13:25 1021 30.15 850 25.1 16.3 61.3 35 0.8 33.4
13:30 1021 30.15 850 25.1 14.8 58.7 40 1.5 34.6
13:35 1021 30.15 850 25.1 15.4 59.8 32 -0.9 30.3
13:40 1021 30.15 850 25.1 15.5 59.9 34 -0.1 31.8
13:45 1021 30.15 850 25.1 15.2 59.4 35 -0.1 31.9
13:50 1021 30.15 850 25.1 15.9 60.7 33 -0.2 31.7
13:55 1021 30.15 850 25.1 15.8 60.4 34 0.2 32.3
14:00 1021 30.15 850 25.1 16.2 61.1 29 -1.8 28.7
14:05 1021 30.15 850 25.1 16.2 61.1 32 -0.7 30.8
14:10 1021 30.15 850 25.1 16.9 62.4 30 -0.9 30.4
14:15 1021 30.15 850 25.1 16.7 62.1 31 -0.3 31.5
14:20 1021 30.15 850 25.1 16.4 61.6 30 -0.9 30.5
14:25 1021 30.15 850 25.1 16.9 62.4 30 -0.8 30.5
14:30 1021 30.15 850 25.1 17.3 63.1 29 -0.8 30.6
14:35 1020 30.12 850 25.1 17.9 64.2 28 -1 30.2
14:40 1020 30.12 850 25.1 17.6 63.7 28 -0.8 30.5
14:45 1020 30.12 850 25.1 17.8 64.1 28 -1 30.3
14:50 1020 30.12 850 25.1 17.1 62.8 31 -0.2 31.6
14:55 1020 30.12 850 25.1 17 62.5 30 -0.8 30.5
15:00 1020 30.12 850 25.1 17.3 63.2 29 -0.8 30.6
15:05 1020 30.12 850 25.1 16 60.7 31 -0.9 30.4
15:10 1020 30.12 849 25.07 16.4 61.5 29 -1.5 29.3
15:15 1020 30.12 849 25.07 16.9 62.4 29 -1.3 29.7
15:20 1020 30.12 849 25.07 17.5 63.5 29 -0.7 30.8
15:25 1020 30.12 849 25.07 17.6 63.7 28 -0.9 30.4
15:30 1020 30.12 849 25.07 17.8 64 28 -0.6 30.9
15:35 1020 30.12 849 25.07 17.9 64.2 29 -0.4 31.3
15:40 1020 30.12 849 25.07 17.1 62.8 31 -0.2 31.6
15:45 1020 30.12 849 25.07 17.6 63.7 29 -0.7 30.8
15:50 1020 30.12 849 25.07 17.5 63.5 29 -0.6 30.9
15:55 1020 30.12 849 25.07 17.5 63.5 30 -0.3 31.4
16:00 1020 30.12 849 25.07 17.9 64.3 27 -1.3 29.6
16:05 1020 30.12 849 25.07 18.2 64.7 27 -0.8 30.5
16:10 1020 30.12 849 25.07 17.2 63 29 -1 30.2
16:15 1020 30.12 849 25.07 16.8 62.2 30 -0.9 30.3
16:20 1020 30.12 849 25.07 17.2 62.9 31 -0.1 31.9
16:25 1020 30.12 849 25.07 17.6 63.6 28 -1 30.1
16:30 1020 30.12 849 25.07 17.7 63.9 27 -1.4 29.5
16:35 1020 30.12 849 25.07 17.3 63.1 28 -1.2 29.9
16:40 1020 30.12 849 25.07 17.6 63.8 28 -0.7 30.7
16:45 1020 30.12 849 25.07 17.5 63.5 28 -1.2 29.9
16:50 1020 30.12 849 25.07 17.9 64.2 27 -1.4 29.5
16:55 1020 30.12 849 25.07 18.2 64.7 27 -0.8 30.5
17:00 1020 30.12 849 25.07 18.7 65.6 26 -1 30.2
17:05 1020 30.12 849 25.07 18.4 65.1 26 -1.2 29.8
17:10 1020 30.12 849 25.07 18.2 64.7 26 -1.7 28.9
17:15 1020 30.12 849 25.07 18.2 64.7 26 -1.7 28.9
17:20 1019 30.09 849 25.07 18.1 64.5 27 -1.3 29.6
17:25 1019 30.09 849 25.07 18 64.3 28 -0.9 30.4
17:30 1019 30.09 849 25.07 17.5 63.5 28 -1.1 30.1
17:35 1019 30.09 849 25.07 18 64.3 26 -1.5 29.4
17:40 1019 30.09 849 25.07 18.1 64.5 27 -1.2 29.8
17:45 1019 30.09 848 25.04 18.1 64.6 27 -1.1 29.9
17:50 1019 30.09 848 25.04 17.6 63.7 28 -0.9 30.3
17:55 1019 30.09 848 25.04 17.5 63.5 27 -1.4 29.5
18:00 1019 30.09 848 25.04 17.6 63.6 27 -1.3 29.6
18:05 1019 30.09 848 25.04 17.7 63.9 27 -1.6 29.1
18:10 1019 30.09 848 25.04 18.1 64.6 26 -1.3 29.6
18:15 1019 30.09 848 25.04 18.1 64.5 27 -1.2 29.8
18:20 1019 30.09 848 25.04 17.8 64 28 -1 30.1
18:25 1019 30.09 848 25.04 17.6 63.7 28 -1.2 29.8
18:30 1019 30.09 848 25.04 17.6 63.7 27 -1.3 29.7
18:35 1019 30.09 848 25.04 17.4 63.4 27 -1.4 29.4
18:40 1019 30.09 848 25.04 17.2 62.9 28 -1.4 29.4
18:45 1019 30.09 848 25.04 17 62.6 28 -1.6 29.2
18:50 1019 30.09 848 25.04 17.1 62.8 28 -1.3 29.7
18:55 1019 30.09 848 25.04 16.7 62 29 -1.1 29.9
19:00 1019 30.09 848 25.04 16.3 61.3 30 -1.3 29.7
19:05 1019 30.09 848 25.04 16.1 61 30 -1.3 29.6
19:10 1019 30.09 848 25.04 16.1 61 30 -1.2 29.9
19:15 1019 30.09 848 25.04 15.9 60.7 30 -1.3 29.6
19:20 1019 30.09 848 25.04 16 60.8 31 -1.2 29.9
19:25 1019 30.09 848 25.04 16 60.8 30 -1.3 29.7
19:30 1019 30.09 848 25.04 16 60.8 31 -1.1 30.1
19:35 1019 30.09 848 25.04 15.9 60.7 32 -0.8 30.5
19:40 1019 30.09 848 25.04 15.4 59.8 32 -0.9 30.3
19:45 1019 30.09 848 25.04 15.2 59.3 33 -0.8 30.6
19:50 1019 30.09 848 25.04 15.1 59.2 34 -0.7 30.7
19:55 1019 30.09 848 25.04 15.1 59.1 34 -0.7 30.8
20:00 1019 30.09 848 25.04 15 58.9 33 -0.9 30.4
20:05 1019 30.09 848 25.04 15 58.9 34 -0.5 31.1
20:10 1019 30.09 848 25.04 14.8 58.7 34 -0.8 30.6
20:15 1019 30.09 848 25.04 14.6 58.3 38 0.4 32.8
20:20 1019 30.09 848 25.04 14.4 57.9 39 0.6 33.1
20:25 1019 30.09 848 25.04 14.1 57.4 41 1 33.8
20:30 1019 30.09 848 25.04 13.8 56.8 45 2 35.5
20:35 1019 30.09 848 25.04 13.4 56 47 2.2 36
20:40 1019 30.09 848 25.04 12.9 55.2 47 2 35.5
20:45 1019 30.09 848 25.04 12.5 54.5 49 2 35.7
20:50 1019 30.09 848 25.04 12.2 53.9 50 2.1 35.7
20:55 1019 30.09 848 25.04 11.8 53.2 51 2 35.6
21:00 1019 30.09 848 25.04 11.6 52.9 51 1.9 35.5
21:05 1019 30.09 848 25.04 11.4 52.6 52 1.8 35.3
21:10 1019 30.09 848 25.04 11.3 52.4 52 1.8 35.2
21:15 1019 30.09 848 25.04 11.2 52.1 53 1.9 35.5
21:20 1019 30.09 848 25.04 10.9 51.7 53 1.9 35.4
21:25 1019 30.09 848 25.04 10.8 51.4 54 1.9 35.4
21:30 1019 30.09 848 25.04 10.7 51.2 55 2 35.5
21:35 1019 30.09 849 25.07 10.5 51 55 1.8 35.3
21:40 1019 30.09 849 25.07 10.6 51.1 54 1.7 35
21:45 1020 30.12 849 25.07 10.7 51.3 53 1.6 34.8
21:50 1020 30.12 849 25.07 10.9 51.7 52 1.5 34.7
21:55 1020 30.12 849 25.07 11 51.7 53 1.7 35.1
22:00 1020 30.12 849 25.07 10.8 51.4 54 1.9 35.5
22:05 1020 30.12 849 25.07 10.5 50.9 54 1.7 35.1
22:10 1020 30.12 849 25.07 10.8 51.4 53 1.7 35
22:15 1020 30.12 849 25.07 10.8 51.4 55 2.2 35.9
22:20 1020 30.12 849 25.07 10.1 50.3 56 1.9 35.4
22:25 1020 30.12 849 25.07 9.9 49.8 57 1.8 35.3
22:30 1020 30.12 849 25.07 9.8 49.6 57 1.7 35.1
22:35 1020 30.12 849 25.07 9.9 49.8 56 1.5 34.7
22:40 1020 30.12 850 25.1 10.2 50.3 54 1.3 34.4
22:45 1020 30.12 850 25.1 10.4 50.7 55 1.8 35.3
22:50 1020 30.12 850 25.1 10 50.1 55 1.6 34.8
22:55 1020 30.12 850 25.1 10.1 50.2 57 1.9 35.4
23:00 1020 30.12 850 25.1 10.2 50.4 56 1.8 35.3
23:05 1020 30.12 850 25.1 10.5 50.8 55 1.9 35.5
23:10 1020 30.12 850 25.1 10.5 51 57 2.4 36.3
23:15 1020 30.12 850 25.1 10.4 50.7 58 2.6 36.6
23:20 1021 30.15 850 25.1 10.1 50.1 60 2.7 36.9
23:25 1021 30.15 850 25.1 9.7 49.4 59 2.2 35.9
23:30 1021 30.15 850 25.1 9.8 49.6 58 1.8 35.3
23:35 1021 30.15 850 25.1 9.9 49.8 58 2 35.6
23:40 1021 30.15 850 25.1 10.2 50.3 54 1.4 34.6
23:45 1021 30.15 850 25.1 10.5 50.8 54 1.6 34.8
23:50 1021 30.15 850 25.1 10.6 51.1 52 1.3 34.4
23:55 1021 30.15 850 25.1 10.7 51.2 52 1.3 34.3
24:00 1021 30.15 850 25.1 10.6 51.1 52 1.1 34